createdAt,value
2019-01-06T00:01:37.377Z,5.43
2019-01-06T00:05:07.112Z,5.43
2019-01-06T00:08:46.555Z,5.42
2019-01-06T00:12:18.568Z,5.35
2019-01-06T00:16:03.810Z,5.26
2019-01-06T00:19:42.171Z,5.36
2019-01-06T00:23:24.733Z,5.33
2019-01-06T00:27:15.747Z,5.31
2019-01-06T00:30:47.819Z,5.27
2019-01-06T00:34:19.783Z,5.28
2019-01-06T00:38:11.297Z,5.40
2019-01-06T00:41:44.814Z,5.39
2019-01-06T00:45:33.458Z,5.33
2019-01-06T00:49:05.209Z,5.30
2019-01-06T00:52:36.833Z,5.23
2019-01-06T00:56:08.880Z,5.15
2019-01-06T00:59:56.976Z,5.18
2019-01-06T01:03:33.344Z,5.22
2019-01-06T01:07:19.525Z,5.22
2019-01-06T01:10:51.431Z,5.23
2019-01-06T01:14:36.963Z,5.32
2019-01-06T01:18:18.289Z,5.31
2019-01-06T01:21:50.198Z,5.32
2019-01-06T01:25:22.353Z,5.36
2019-01-06T01:28:51.831Z,5.32
2019-01-06T01:32:23.654Z,5.38
2019-01-06T01:36:06.799Z,5.28
2019-01-06T01:39:34.655Z,5.32
2019-01-06T01:43:07.444Z,5.34
2019-01-06T01:46:39.895Z,5.41
2019-01-06T01:50:15.967Z,5.41
2019-01-06T01:53:48.237Z,5.39
2019-01-06T01:57:30.727Z,5.34
2019-01-06T02:00:52.331Z,5.44
2019-01-06T02:04:24.487Z,5.41
2019-01-06T02:08:13.034Z,5.20
2019-01-06T02:11:41.646Z,5.32
2019-01-06T02:15:24.150Z,5.37
2019-01-06T02:18:59.787Z,5.55
2019-01-06T02:22:42.262Z,5.57
2019-01-06T02:26:30.332Z,5.64
2019-01-06T02:29:59.452Z,5.57
2019-01-06T02:33:36.244Z,5.52
2019-01-06T02:37:08.420Z,5.52
2019-01-06T02:40:53.501Z,5.54
2019-01-06T02:44:23.502Z,5.42
2019-01-06T02:48:08.201Z,5.34
2019-01-06T02:51:47.211Z,5.40
2019-01-06T02:55:21.972Z,5.53
2019-01-06T02:59:09.869Z,5.58
2019-01-06T03:02:42.443Z,5.57
2019-01-06T03:06:25.959Z,5.56
2019-01-06T03:10:05.384Z,5.56
2019-01-06T03:13:53.961Z,5.54
2019-01-06T03:17:30.079Z,5.64
2019-01-06T03:21:18.107Z,5.56
2019-01-06T03:24:50.563Z,5.55
2019-01-06T03:28:42.295Z,5.54
2019-01-06T03:32:33.714Z,5.48
2019-01-06T03:36:05.426Z,5.35
2019-01-06T03:39:47.420Z,5.24
2019-01-06T03:43:23.898Z,5.27
2019-01-06T03:47:03.703Z,5.31
2019-01-06T03:50:35.735Z,5.13
2019-01-06T03:54:09.014Z,5.08
2019-01-06T03:57:40.974Z,5.03
2019-01-06T04:01:04.089Z,5.14
2019-01-06T04:04:43.220Z,5.04
2019-01-06T04:08:16.726Z,4.98
2019-01-06T04:11:52.743Z,4.93
2019-01-06T04:15:25.018Z,4.89
2019-01-06T04:19:04.280Z,5.04
2019-01-06T04:22:49.259Z,5.03
2019-01-06T04:26:28.035Z,5.12
2019-01-06T04:29:59.921Z,5.19
2019-01-06T04:37:38.902Z,5.30
2019-01-06T04:41:10.693Z,5.27
2019-01-06T04:44:52.954Z,5.28
2019-01-06T04:48:28.867Z,5.33
2019-01-06T04:52:20.581Z,5.30
2019-01-06T04:55:56.846Z,5.28
2019-01-06T04:59:35.333Z,5.36
2019-01-06T05:03:08.778Z,5.35
2019-01-06T05:06:59.925Z,5.35
2019-01-06T05:10:31.744Z,5.40
2019-01-06T05:14:07.713Z,5.41
2019-01-06T05:17:43.703Z,5.28
2019-01-06T05:21:15.399Z,5.34
2019-01-06T05:25:03.801Z,5.38
2019-01-06T05:28:55.117Z,5.37
2019-01-06T05:32:27.317Z,5.43
2019-01-06T05:35:58.824Z,5.42
2019-01-06T05:39:32.699Z,5.41
2019-01-06T05:43:14.820Z,5.33
2019-01-06T05:46:39.020Z,5.40
2019-01-06T05:50:15.027Z,5.39
2019-01-06T05:53:48.364Z,5.41
2019-01-06T05:57:21.218Z,5.48
2019-01-06T06:00:48.830Z,5.39
2019-01-06T06:04:21.040Z,5.42
2019-01-06T06:07:55.844Z,5.50
2019-01-06T06:11:41.185Z,5.53
2019-01-06T06:15:32.594Z,5.52
2019-01-06T06:19:14.840Z,5.59
2019-01-06T06:22:48.846Z,5.60
2019-01-06T06:26:37.341Z,5.59
2019-01-06T06:30:09.206Z,5.59
2019-01-06T06:33:35.414Z,5.51
2019-01-06T06:37:09.090Z,5.59
2019-01-06T06:40:30.331Z,5.60
2019-01-06T06:44:03.513Z,5.55
2019-01-06T06:47:35.237Z,5.50
2019-01-06T06:51:12.412Z,5.40
2019-01-06T06:54:40.880Z,5.53
2019-01-06T06:58:35.512Z,5.51
2019-01-06T07:02:45.506Z,5.54
2019-01-06T07:06:17.737Z,5.48
2019-01-06T07:09:53.715Z,5.46
2019-01-06T07:13:42.080Z,5.53
2019-01-06T07:17:46.015Z,5.54
2019-01-06T07:21:23.369Z,5.56
2019-01-06T07:24:56.968Z,5.45
2019-01-06T07:28:29.250Z,5.52
2019-01-06T07:31:55.190Z,5.63
2019-01-06T07:35:27.863Z,5.42
2019-01-06T07:39:09.388Z,5.39
2019-01-06T07:42:38.344Z,5.44
2019-01-06T07:46:23.918Z,5.49
2019-01-06T07:50:12.003Z,5.49
2019-01-06T07:53:39.761Z,5.43
2019-01-06T07:57:15.697Z,5.53
2019-01-06T08:01:04.371Z,5.55
2019-01-06T08:04:46.879Z,5.47
2019-01-06T08:08:18.751Z,5.42
2019-01-06T08:12:01.331Z,5.39
2019-01-06T08:15:33.037Z,5.39
2019-01-06T08:19:03.928Z,5.45
2019-01-06T08:26:32.407Z,5.48
2019-01-06T08:30:03.949Z,5.49
2019-01-06T08:33:31.332Z,5.65
2019-01-06T08:37:23.744Z,5.69
2019-01-06T08:40:55.855Z,5.68
2019-01-06T08:44:35.086Z,5.78
2019-01-06T08:48:11.560Z,5.77
2019-01-06T08:51:47.606Z,5.93
2019-01-06T08:55:48.189Z,6.11
2019-01-06T08:59:24.440Z,6.15
2019-01-06T09:02:56.116Z,6.20
2019-01-06T09:06:29.565Z,6.11
2019-01-06T09:10:17.845Z,6.14
2019-01-06T09:13:51.291Z,6.17
2019-01-06T09:17:28.234Z,6.17
2019-01-06T09:21:00.827Z,6.19
2019-01-06T09:24:48.847Z,6.29
2019-01-06T09:28:25.777Z,6.35
2019-01-06T09:32:02.098Z,6.41
2019-01-06T09:35:29.005Z,6.42
2019-01-06T09:39:01.230Z,6.30
2019-01-06T09:42:33.476Z,6.29
2019-01-06T09:46:01.663Z,6.30
2019-01-06T09:49:41.584Z,6.27
2019-01-06T09:53:25.589Z,6.35
2019-01-06T09:56:58.511Z,6.49
2019-01-06T10:00:30.702Z,6.49
2019-01-06T10:04:03.302Z,6.49
2019-01-06T10:07:39.876Z,6.55
2019-01-06T10:11:13.356Z,6.59
2019-01-06T10:14:46.724Z,6.55
2019-01-06T10:18:29.519Z,6.66
2019-01-06T10:22:01.325Z,6.79
2019-01-06T10:25:33.166Z,7.04
2019-01-06T10:29:03.854Z,7.09
2019-01-06T10:32:51.823Z,7.20
2019-01-06T10:36:24.018Z,7.08
2019-01-06T10:40:03.374Z,6.98
2019-01-06T10:43:35.707Z,6.98
2019-01-06T10:47:08.952Z,7.06
2019-01-06T10:50:40.982Z,7.10
2019-01-06T10:54:13.512Z,7.18
2019-01-06T10:57:45.467Z,7.16
2019-01-06T11:05:02.870Z,6.93
2019-01-06T11:08:36.624Z,7.19
2019-01-06T11:12:09.417Z,7.41
2019-01-06T11:15:41.594Z,7.25
2019-01-06T11:19:18.091Z,7.04
2019-01-06T11:23:09.733Z,7.18
2019-01-06T11:26:49.556Z,7.21
2019-01-06T11:30:22.480Z,7.24
2019-01-06T11:33:51.426Z,7.32
2019-01-06T11:37:23.339Z,7.49
2019-01-06T11:41:07.987Z,7.73
2019-01-06T11:44:44.310Z,7.69
2019-01-06T11:48:18.155Z,7.53
2019-01-06T11:51:50.840Z,7.66
2019-01-06T11:55:19.089Z,7.80
2019-01-06T11:58:55.034Z,7.73
2019-01-06T12:02:46.229Z,7.73
2019-01-06T12:06:28.698Z,8.01
2019-01-06T12:09:54.919Z,7.87
2019-01-06T12:13:27.278Z,8.04
2019-01-06T12:17:01.415Z,8.05
2019-01-06T12:20:28.592Z,8.10
2019-01-06T12:24:03.012Z,8.05
2019-01-06T12:27:38.119Z,8.12
2019-01-06T12:31:11.042Z,8.31
2019-01-06T12:34:55.013Z,8.34
2019-01-06T12:38:27.102Z,8.28
2019-01-06T12:42:07.483Z,8.28
2019-01-06T12:45:53.553Z,8.06
2019-01-06T12:49:26.255Z,7.79
2019-01-06T12:53:15.327Z,7.76
2019-01-06T12:56:49.068Z,7.83
2019-01-06T13:00:34.814Z,7.85
2019-01-06T13:04:06.735Z,7.60
2019-01-06T13:07:58.108Z,7.51
2019-01-06T13:11:30.105Z,7.33
2019-01-06T13:15:10.139Z,7.28
2019-01-06T13:18:42.339Z,7.40
2019-01-06T13:22:22.465Z,7.25
2019-01-06T13:25:55.117Z,7.44
2019-01-06T13:29:31.583Z,7.35
2019-01-06T13:33:05.866Z,7.48
2019-01-06T13:36:39.819Z,7.57
2019-01-06T13:44:00.501Z,7.74
2019-01-06T13:47:35.514Z,7.84
2019-01-06T13:51:07.872Z,7.95
2019-01-06T13:54:39.955Z,7.99
2019-01-06T13:58:12.887Z,7.97
2019-01-06T14:01:45.481Z,7.71
2019-01-06T14:05:17.934Z,7.54
2019-01-06T14:08:50.528Z,7.18
2019-01-06T14:12:18.565Z,7.10
2019-01-06T14:15:50.900Z,6.99
2019-01-06T14:19:32.594Z,7.02
2019-01-06T14:23:12.091Z,7.26
2019-01-06T14:26:59.558Z,7.01
2019-01-06T14:30:52.463Z,6.90
2019-01-06T14:34:34.944Z,6.85
2019-01-06T14:38:09.885Z,6.70
2019-01-06T14:41:52.785Z,6.64
2019-01-06T14:45:26.758Z,6.74
2019-01-06T14:49:02.415Z,6.72
2019-01-06T14:52:42.983Z,6.81
2019-01-06T14:56:19.579Z,6.61
2019-01-06T15:00:06.973Z,6.58
2019-01-06T15:03:58.899Z,6.66
2019-01-06T15:07:37.341Z,6.66
2019-01-06T15:11:10.900Z,6.64
2019-01-06T15:14:44.408Z,6.62
2019-01-06T15:18:33.222Z,6.51
2019-01-06T15:22:05.597Z,6.39
2019-01-06T15:25:48.445Z,6.40
2019-01-06T15:29:21.852Z,6.46
2019-01-06T15:32:46.937Z,6.37
2019-01-06T15:36:24.523Z,6.42
2019-01-06T15:39:58.681Z,6.41
2019-01-06T15:43:38.698Z,6.42
2019-01-06T15:47:06.848Z,6.36
2019-01-06T15:50:34.981Z,6.25
2019-01-06T15:54:01.494Z,6.25
2019-01-06T15:57:37.804Z,6.30
2019-01-06T16:01:16.833Z,6.28
2019-01-06T16:04:49.523Z,6.22
2019-01-06T16:08:32.074Z,6.25
2019-01-06T16:12:08.777Z,6.16
2019-01-06T16:15:53.718Z,6.19
2019-01-06T16:19:25.805Z,6.12
2019-01-06T16:23:05.537Z,6.16
2019-01-06T16:26:37.594Z,6.07
2019-01-06T16:30:22.939Z,6.01
2019-01-06T16:34:04.283Z,6.05
2019-01-06T16:37:36.204Z,6.24
2019-01-06T16:41:02.820Z,6.03
2019-01-06T16:44:34.737Z,6.05
2019-01-06T16:48:20.450Z,6.08
2019-01-06T16:51:37.209Z,5.98
2019-01-06T16:55:25.643Z,5.98
2019-01-06T16:59:08.737Z,5.83
2019-01-06T17:02:47.171Z,6.05
2019-01-06T17:06:29.752Z,5.98
2019-01-06T17:10:04.668Z,6.07
2019-01-06T17:13:49.858Z,6.15
2019-01-06T17:17:29.188Z,6.07
2019-01-06T17:21:03.184Z,6.14
2019-01-06T17:24:36.727Z,6.17
2019-01-06T17:28:13.039Z,6.18
2019-01-06T17:31:49.335Z,6.18
2019-01-06T17:35:14.878Z,6.09
2019-01-06T17:38:46.945Z,6.16
2019-01-06T17:42:18.997Z,6.19
2019-01-06T17:45:55.710Z,6.23
2019-01-06T17:49:33.528Z,6.18
2019-01-06T17:53:07.605Z,6.06
2019-01-06T17:56:41.084Z,6.03
2019-01-06T18:00:13.302Z,6.03
2019-01-06T18:08:02.299Z,5.91
2019-01-06T18:11:35.369Z,5.87
2019-01-06T18:15:01.737Z,5.85
2019-01-06T18:18:34.238Z,5.92
2019-01-06T18:22:06.162Z,5.87
2019-01-06T18:25:46.738Z,5.77
2019-01-06T18:29:29.150Z,5.70
2019-01-06T18:32:57.270Z,5.74
2019-01-06T18:36:28.409Z,5.72
2019-01-06T18:40:09.541Z,5.73
2019-01-06T18:43:41.680Z,5.78
2019-01-06T18:47:30.525Z,5.74
2019-01-06T18:51:21.893Z,5.71
2019-01-06T18:55:07.730Z,5.48
2019-01-06T18:58:41.266Z,5.56
2019-01-06T19:02:20.518Z,5.52
2019-01-06T19:05:53.017Z,5.35
2019-01-06T19:09:26.101Z,5.56
2019-01-06T19:13:02.721Z,5.58
2019-01-06T19:16:45.868Z,5.64
2019-01-06T19:20:18.355Z,5.62
2019-01-06T19:24:00.950Z,5.73
2019-01-06T19:27:46.536Z,5.55
2019-01-06T19:31:19.743Z,5.63
2019-01-06T19:34:53.345Z,5.71
2019-01-06T19:38:25.615Z,5.75
2019-01-06T19:42:16.119Z,5.85
2019-01-06T19:45:52.996Z,5.75
2019-01-06T19:49:36.161Z,5.61
2019-01-06T19:58:05.809Z,5.56
2019-01-06T20:01:51.091Z,5.42
2019-01-06T20:05:27.127Z,5.41
2019-01-06T20:09:09.250Z,5.35
2019-01-06T20:12:49.630Z,5.34
2019-01-06T20:16:23.123Z,5.26
2019-01-06T20:24:13.350Z,5.42
2019-01-06T20:27:40.699Z,5.36
2019-01-06T20:31:29.466Z,5.44
2019-01-06T20:35:10.766Z,5.36
2019-01-06T20:38:56.698Z,5.35
2019-01-06T20:42:28.608Z,5.29
2019-01-06T20:46:00.860Z,5.28
2019-01-06T20:49:28.474Z,5.24
2019-01-06T20:53:04.467Z,5.22
2019-01-06T20:56:36.992Z,5.34
2019-01-06T21:00:08.949Z,5.38
2019-01-06T21:03:40.880Z,5.27
2019-01-06T21:07:12.872Z,5.22
2019-01-06T21:11:01.448Z,5.09
2019-01-06T21:14:49.636Z,5.02
2019-01-06T21:18:25.576Z,4.98
2019-01-06T21:22:04.587Z,4.90
2019-01-06T21:25:30.350Z,4.92
2019-01-06T21:28:55.002Z,4.89
2019-01-06T21:32:27.101Z,4.82
2019-01-06T21:36:04.032Z,4.91
2019-01-06T21:39:55.261Z,4.91
2019-01-06T21:43:28.423Z,4.88
2019-01-06T21:47:04.741Z,4.92
2019-01-06T21:50:36.682Z,4.91
2019-01-06T21:54:04.575Z,4.95
2019-01-06T21:57:41.437Z,4.95
2019-01-06T22:01:13.416Z,4.96
2019-01-06T22:04:45.786Z,5.02
2019-01-06T22:08:17.398Z,4.97
2019-01-06T22:11:49.216Z,4.90
2019-01-06T22:15:21.239Z,4.98
2019-01-06T22:18:53.257Z,5.04
2019-01-06T22:22:30.297Z,5.05
2019-01-06T22:26:05.357Z,5.09
2019-01-06T22:29:44.819Z,5.04
2019-01-06T22:33:19.753Z,5.04
2019-01-06T22:37:04.422Z,5.09
2019-01-06T22:40:37.593Z,5.12
2019-01-06T22:44:10.763Z,5.14
2019-01-06T22:47:40.195Z,5.19
2019-01-06T22:51:17.712Z,5.10
2019-01-06T22:54:57.156Z,5.11
2019-01-06T22:58:29.148Z,5.10
2019-01-06T23:01:57.232Z,5.11
2019-01-06T23:05:20.805Z,5.09
2019-01-06T23:08:46.750Z,5.13
2019-01-06T23:12:12.670Z,5.12
2019-01-06T23:15:44.904Z,5.10
2019-01-06T23:19:16.727Z,5.05
2019-01-06T23:22:48.333Z,5.07
2019-01-06T23:26:17.023Z,5.06
2019-01-06T23:29:49.023Z,5.04
2019-01-06T23:33:34.591Z,5.02
2019-01-06T23:37:12.371Z,4.95
2019-01-06T23:41:00.109Z,4.94
2019-01-06T23:44:48.094Z,4.87
2019-01-06T23:48:19.970Z,4.86
2019-01-06T23:51:59.631Z,4.82
2019-01-06T23:55:33.581Z,4.75
2019-01-06T23:59:03.127Z,4.71
